createdAt,value
2019-03-30T00:00:16.228Z,1002.50
2019-03-30T00:01:16.220Z,1002.45
2019-03-30T00:02:16.206Z,1002.46
2019-03-30T00:03:16.211Z,1002.49
2019-03-30T00:04:16.218Z,1002.55
2019-03-30T00:05:16.216Z,1002.49
2019-03-30T00:06:16.193Z,1002.53
2019-03-30T00:07:16.187Z,1002.49
2019-03-30T00:08:16.183Z,1002.56
2019-03-30T00:09:16.182Z,1002.53
2019-03-30T00:10:16.175Z,1002.52
2019-03-30T00:11:16.197Z,1002.50
2019-03-30T00:12:16.187Z,1002.46
2019-03-30T00:13:16.152Z,1002.41
2019-03-30T00:14:17.160Z,1002.48
2019-03-30T00:15:16.157Z,1002.44
2019-03-30T00:16:16.147Z,1002.46
2019-03-30T00:17:16.131Z,1002.49
2019-03-30T00:18:16.142Z,1002.42
2019-03-30T00:19:16.138Z,1002.42
2019-03-30T00:20:16.112Z,1002.46
2019-03-30T00:21:16.098Z,1002.39
2019-03-30T00:22:16.089Z,1002.45
2019-03-30T00:23:16.095Z,1002.40
2019-03-30T00:24:16.153Z,1002.44
2019-03-30T00:25:16.080Z,1002.46
2019-03-30T00:26:16.072Z,1002.44
2019-03-30T00:27:16.088Z,1002.45
2019-03-30T00:28:16.083Z,1002.44
2019-03-30T00:29:16.078Z,1002.42
2019-03-30T00:30:18.996Z,1002.37
2019-03-30T00:31:16.064Z,1002.41
2019-03-30T00:32:16.052Z,1002.35
2019-03-30T00:33:16.049Z,1002.43
2019-03-30T00:34:16.039Z,1002.44
2019-03-30T00:35:16.043Z,1002.52
2019-03-30T00:36:16.028Z,1002.53
2019-03-30T00:37:16.013Z,1002.42
2019-03-30T00:38:16.010Z,1002.49
2019-03-30T00:39:16.013Z,1002.45
2019-03-30T00:40:15.990Z,1002.43
2019-03-30T00:41:15.976Z,1002.50
2019-03-30T00:42:15.967Z,1002.43
2019-03-30T00:43:15.964Z,1002.38
2019-03-30T00:44:15.968Z,1002.38
2019-03-30T00:45:15.966Z,1002.41
2019-03-30T00:46:15.939Z,1002.40
2019-03-30T00:47:15.921Z,1002.43
2019-03-30T00:48:15.916Z,1002.47
2019-03-30T00:49:15.941Z,1002.35
2019-03-30T00:50:15.912Z,1002.39
2019-03-30T00:51:15.933Z,1002.39
2019-03-30T00:52:15.915Z,1002.36
2019-03-30T00:53:15.891Z,1002.33
2019-03-30T00:54:15.902Z,1002.46
2019-03-30T00:55:15.881Z,1002.46
2019-03-30T00:56:15.876Z,1002.39
2019-03-30T00:57:15.863Z,1002.40
2019-03-30T00:58:15.870Z,1002.48
2019-03-30T00:59:15.874Z,1002.36
2019-03-30T01:00:15.861Z,1002.55
2019-03-30T01:01:15.862Z,1002.44
2019-03-30T01:02:15.847Z,1002.47
2019-03-30T01:03:15.829Z,1002.50
2019-03-30T01:04:15.834Z,1002.56
2019-03-30T01:05:15.811Z,1002.52
2019-03-30T01:06:15.812Z,1002.40
2019-03-30T01:07:15.807Z,1002.44
2019-03-30T01:08:15.799Z,1002.51
2019-03-30T01:09:15.803Z,1002.45
2019-03-30T01:10:15.803Z,1002.51
2019-03-30T01:11:15.777Z,1002.48
2019-03-30T01:12:15.771Z,1002.50
2019-03-30T01:13:15.785Z,1002.38
2019-03-30T01:14:15.795Z,1002.39
2019-03-30T01:15:15.848Z,1002.40
2019-03-30T01:16:15.767Z,1002.44
2019-03-30T01:17:15.766Z,1002.38
2019-03-30T01:18:15.832Z,1002.42
2019-03-30T01:19:15.767Z,1002.48
2019-03-30T01:20:15.743Z,1002.44
2019-03-30T01:21:15.735Z,1002.47
2019-03-30T01:22:15.724Z,1002.40
2019-03-30T01:23:15.720Z,1002.37
2019-03-30T01:24:15.716Z,1002.43
2019-03-30T01:25:15.728Z,1002.42
2019-03-30T01:26:15.705Z,1002.33
2019-03-30T01:27:15.685Z,1002.36
2019-03-30T01:28:15.682Z,1002.34
2019-03-30T01:29:15.679Z,1002.35
2019-03-30T01:30:23.093Z,1002.31
2019-03-30T01:31:17.646Z,1002.26
2019-03-30T01:32:15.661Z,1002.30
2019-03-30T01:33:15.639Z,1002.29
2019-03-30T01:34:15.659Z,1002.33
2019-03-30T01:35:15.730Z,1002.21
2019-03-30T01:36:15.623Z,1002.29
2019-03-30T01:37:15.622Z,1002.27
2019-03-30T01:38:15.621Z,1002.26
2019-03-30T01:39:15.612Z,1002.28
2019-03-30T01:40:15.594Z,1002.40
2019-03-30T01:41:15.588Z,1002.33
2019-03-30T01:42:15.577Z,1002.28
2019-03-30T01:43:15.572Z,1002.31
2019-03-30T01:44:15.576Z,1002.27
2019-03-30T01:45:15.561Z,1002.37
2019-03-30T01:46:15.561Z,1002.26
2019-03-30T01:47:15.544Z,1002.28
2019-03-30T01:48:15.546Z,1002.39
2019-03-30T01:49:15.565Z,1002.33
2019-03-30T01:50:17.782Z,1002.25
2019-03-30T01:51:16.530Z,1002.33
2019-03-30T01:52:15.522Z,1002.34
2019-03-30T01:53:15.518Z,1002.28
2019-03-30T01:54:15.530Z,1002.26
2019-03-30T01:55:15.512Z,1002.27
2019-03-30T01:56:16.500Z,1002.34
2019-03-30T01:57:15.495Z,1002.20
2019-03-30T01:58:15.477Z,1002.24
2019-03-30T01:59:15.474Z,1002.24
2019-03-30T02:00:15.466Z,1002.26
2019-03-30T02:01:15.473Z,1002.12
2019-03-30T02:02:15.442Z,1002.23
2019-03-30T02:03:16.450Z,1002.18
2019-03-30T02:04:15.457Z,1002.17
2019-03-30T02:05:15.443Z,1002.13
2019-03-30T02:06:15.437Z,1002.11
2019-03-30T02:07:15.417Z,1002.14
2019-03-30T02:08:15.407Z,1002.09
2019-03-30T02:09:15.444Z,1002.04
2019-03-30T02:10:15.401Z,1002.07
2019-03-30T02:11:15.395Z,1002.10
2019-03-30T02:12:15.386Z,1002.10
2019-03-30T02:13:15.395Z,1002.13
2019-03-30T02:14:15.395Z,1002.06
2019-03-30T02:15:15.365Z,1002.15
2019-03-30T02:16:15.366Z,1002.16
2019-03-30T02:17:15.356Z,1002.04
2019-03-30T02:18:15.340Z,1002.09
2019-03-30T02:19:15.348Z,1002.07
2019-03-30T02:20:15.337Z,1002.04
2019-03-30T02:21:15.317Z,1002.12
2019-03-30T02:22:15.337Z,1002.02
2019-03-30T02:23:15.322Z,1001.95
2019-03-30T02:24:15.330Z,1002.04
2019-03-30T02:25:15.326Z,1002.05
2019-03-30T02:26:15.328Z,1001.99
2019-03-30T02:27:15.323Z,1002.09
2019-03-30T02:28:15.314Z,1002.10
2019-03-30T02:29:15.318Z,1002.08
2019-03-30T02:30:15.306Z,1001.96
2019-03-30T02:31:15.296Z,1002.01
2019-03-30T02:32:15.283Z,1002.03
2019-03-30T02:33:15.335Z,1001.95
2019-03-30T02:34:15.282Z,1002.05
2019-03-30T02:35:15.261Z,1002.03
2019-03-30T02:36:16.264Z,1002.03
2019-03-30T02:37:15.249Z,1002.03
2019-03-30T02:38:15.242Z,1002.06
2019-03-30T02:39:15.249Z,1002.06
2019-03-30T02:40:15.230Z,1001.97
2019-03-30T02:41:15.215Z,1002.05
2019-03-30T02:42:15.225Z,1001.96
2019-03-30T02:43:15.214Z,1001.97
2019-03-30T02:44:15.209Z,1002.04
2019-03-30T02:45:15.209Z,1001.99
2019-03-30T02:46:15.184Z,1002.02
2019-03-30T02:47:15.190Z,1001.90
2019-03-30T02:48:15.181Z,1001.92
2019-03-30T02:49:15.184Z,1002.06
2019-03-30T02:50:15.160Z,1001.97
2019-03-30T02:51:15.158Z,1001.95
2019-03-30T02:52:15.158Z,1001.99
2019-03-30T02:53:15.139Z,1001.97
2019-03-30T02:54:15.150Z,1001.96
2019-03-30T02:55:15.129Z,1001.89
2019-03-30T02:56:15.122Z,1001.96
2019-03-30T02:57:15.116Z,1001.94
2019-03-30T02:58:15.100Z,1001.91
2019-03-30T02:59:15.122Z,1001.89
2019-03-30T03:00:15.093Z,1001.91
2019-03-30T03:01:15.106Z,1001.94
2019-03-30T03:02:15.112Z,1001.85
2019-03-30T03:03:15.114Z,1001.86
2019-03-30T03:04:15.104Z,1001.86
2019-03-30T03:05:15.117Z,1001.85
2019-03-30T03:06:15.079Z,1001.84
2019-03-30T03:07:15.075Z,1001.80
2019-03-30T03:08:15.075Z,1001.83
2019-03-30T03:09:15.065Z,1001.81
2019-03-30T03:10:15.064Z,1001.84
2019-03-30T03:11:15.045Z,1001.84
2019-03-30T03:12:15.050Z,1001.81
2019-03-30T03:13:15.047Z,1001.80
2019-03-30T03:14:15.039Z,1001.82
2019-03-30T03:15:15.037Z,1001.74
2019-03-30T03:16:15.028Z,1001.79
2019-03-30T03:17:15.010Z,1001.88
2019-03-30T03:18:15.010Z,1001.83
2019-03-30T03:19:15.000Z,1001.74
2019-03-30T03:20:15.000Z,1001.76
2019-03-30T03:21:14.982Z,1001.72
2019-03-30T03:22:14.982Z,1001.63
2019-03-30T03:23:14.987Z,1001.62
2019-03-30T03:24:14.964Z,1001.73
2019-03-30T03:25:14.972Z,1001.71
2019-03-30T03:26:14.950Z,1001.71
2019-03-30T03:27:14.947Z,1001.73
2019-03-30T03:28:14.976Z,1001.71
2019-03-30T03:29:14.942Z,1001.73
2019-03-30T03:30:14.952Z,1001.63
2019-03-30T03:31:14.929Z,1001.68
2019-03-30T03:32:14.932Z,1001.64
2019-03-30T03:33:14.920Z,1001.71
2019-03-30T03:34:14.912Z,1001.62
2019-03-30T03:35:14.935Z,1001.64
2019-03-30T03:36:14.899Z,1001.63
2019-03-30T03:37:14.893Z,1001.56
2019-03-30T03:38:14.883Z,1001.63
2019-03-30T03:39:14.878Z,1001.51
2019-03-30T03:40:14.880Z,1001.67
2019-03-30T03:41:14.865Z,1001.67
2019-03-30T03:42:14.857Z,1001.67
2019-03-30T03:43:14.869Z,1001.64
2019-03-30T03:44:14.848Z,1001.66
2019-03-30T03:45:14.848Z,1001.64
2019-03-30T03:46:14.838Z,1001.69
2019-03-30T03:47:14.814Z,1001.72
2019-03-30T03:48:14.823Z,1001.73
2019-03-30T03:49:14.806Z,1001.77
2019-03-30T03:50:14.820Z,1001.68
2019-03-30T03:51:25.561Z,1001.66
2019-03-30T03:52:16.790Z,1001.69
2019-03-30T03:53:14.784Z,1001.66
2019-03-30T03:54:14.777Z,1001.66
2019-03-30T03:55:14.787Z,1001.71
2019-03-30T03:56:14.758Z,1001.64
2019-03-30T03:57:14.767Z,1001.65
2019-03-30T03:58:14.761Z,1001.74
2019-03-30T03:59:14.762Z,1001.75
2019-03-30T04:00:14.767Z,1001.69
2019-03-30T04:01:14.749Z,1001.72
2019-03-30T04:02:14.738Z,1001.73
2019-03-30T04:03:14.745Z,1001.73
2019-03-30T04:04:14.730Z,1001.66
2019-03-30T04:05:14.728Z,1001.72
2019-03-30T04:06:14.711Z,1001.70
2019-03-30T04:07:14.722Z,1001.73
2019-03-30T04:08:14.721Z,1001.67
2019-03-30T04:09:14.722Z,1001.68
2019-03-30T04:10:14.731Z,1001.72
2019-03-30T04:11:14.711Z,1001.64
2019-03-30T04:12:14.710Z,1001.62
2019-03-30T04:13:14.695Z,1001.68
2019-03-30T04:14:14.699Z,1001.63
2019-03-30T04:15:14.696Z,1001.67
2019-03-30T04:16:14.673Z,1001.69
2019-03-30T04:17:14.679Z,1001.64
2019-03-30T04:18:14.655Z,1001.62
2019-03-30T04:19:14.652Z,1001.58
2019-03-30T04:20:14.657Z,1001.64
2019-03-30T04:21:14.666Z,1001.67
2019-03-30T04:22:14.662Z,1001.62
2019-03-30T04:23:14.650Z,1001.59
2019-03-30T04:24:14.641Z,1001.59
2019-03-30T04:25:14.650Z,1001.60
2019-03-30T04:26:14.629Z,1001.67
2019-03-30T04:27:14.655Z,1001.68
2019-03-30T04:28:14.651Z,1001.61
2019-03-30T04:29:14.632Z,1001.53
2019-03-30T04:30:14.636Z,1001.59
2019-03-30T04:31:14.618Z,1001.57
2019-03-30T04:32:14.601Z,1001.63
2019-03-30T04:33:14.607Z,1001.54
2019-03-30T04:34:14.596Z,1001.62
2019-03-30T04:35:14.595Z,1001.63
2019-03-30T04:36:14.575Z,1001.59
2019-03-30T04:37:14.595Z,1001.68
2019-03-30T04:38:14.798Z,1001.67
2019-03-30T04:39:14.585Z,1001.70
2019-03-30T04:40:14.594Z,1001.61
2019-03-30T04:41:14.574Z,1001.67
2019-03-30T04:42:14.568Z,1001.62
2019-03-30T04:43:14.567Z,1001.66
2019-03-30T04:44:14.558Z,1001.69
2019-03-30T04:45:14.553Z,1001.61
2019-03-30T04:46:14.612Z,1001.69
2019-03-30T04:47:14.530Z,1001.68
2019-03-30T04:48:14.524Z,1001.62
2019-03-30T04:49:14.523Z,1001.60
2019-03-30T04:50:14.532Z,1001.63
2019-03-30T04:51:14.494Z,1001.63
2019-03-30T04:52:14.491Z,1001.61
2019-03-30T04:53:14.482Z,1001.57
2019-03-30T04:54:14.479Z,1001.60
2019-03-30T04:55:14.495Z,1001.63
2019-03-30T04:56:14.462Z,1001.56
2019-03-30T04:57:14.476Z,1001.61
2019-03-30T04:58:14.472Z,1001.60
2019-03-30T04:59:14.464Z,1001.59
2019-03-30T05:00:14.462Z,1001.52
2019-03-30T05:01:14.457Z,1001.46
2019-03-30T05:02:14.448Z,1001.61
2019-03-30T05:03:14.444Z,1001.61
2019-03-30T05:04:14.424Z,1001.63
2019-03-30T05:05:14.430Z,1001.64
2019-03-30T05:06:14.418Z,1001.62
2019-03-30T05:07:14.404Z,1001.64
2019-03-30T05:08:14.406Z,1001.56
2019-03-30T05:09:14.435Z,1001.66
2019-03-30T05:10:14.402Z,1001.62
2019-03-30T05:11:14.376Z,1001.58
2019-03-30T05:12:14.370Z,1001.58
2019-03-30T05:13:14.375Z,1001.55
2019-03-30T05:14:14.358Z,1001.50
2019-03-30T05:15:14.358Z,1001.52
2019-03-30T05:16:14.340Z,1001.58
2019-03-30T05:17:14.335Z,1001.54
2019-03-30T05:18:14.328Z,1001.50
2019-03-30T05:19:14.341Z,1001.48
2019-03-30T05:20:14.354Z,1001.46
2019-03-30T05:21:14.313Z,1001.40
2019-03-30T05:22:16.721Z,1001.42
2019-03-30T05:23:15.308Z,1001.46
2019-03-30T05:24:14.297Z,1001.52
2019-03-30T05:25:14.305Z,1001.49
2019-03-30T05:26:14.287Z,1001.54
2019-03-30T05:27:14.274Z,1001.50
2019-03-30T05:28:14.279Z,1001.38
2019-03-30T05:29:14.258Z,1001.47
2019-03-30T05:30:14.258Z,1001.49
2019-03-30T05:31:14.260Z,1001.46
2019-03-30T05:32:14.242Z,1001.38
2019-03-30T05:33:14.235Z,1001.40
2019-03-30T05:34:14.232Z,1001.36
2019-03-30T05:35:14.224Z,1001.39
2019-03-30T05:36:14.221Z,1001.44
2019-03-30T05:37:14.204Z,1001.39
2019-03-30T05:38:14.199Z,1001.41
2019-03-30T05:39:14.194Z,1001.41
2019-03-30T05:40:14.179Z,1001.45
2019-03-30T05:41:14.189Z,1001.38
2019-03-30T05:42:14.167Z,1001.47
2019-03-30T05:43:14.164Z,1001.41
2019-03-30T05:44:14.160Z,1001.40
2019-03-30T05:45:14.145Z,1001.42
2019-03-30T05:46:14.151Z,1001.36
2019-03-30T05:47:14.142Z,1001.34
2019-03-30T05:48:14.127Z,1001.31
2019-03-30T05:49:14.120Z,1001.31
2019-03-30T05:50:14.129Z,1001.26
2019-03-30T05:51:14.126Z,1001.28
2019-03-30T05:52:25.841Z,1001.23
2019-03-30T05:53:16.098Z,1001.25
2019-03-30T05:54:14.088Z,1001.26
2019-03-30T05:55:14.092Z,1001.22
2019-03-30T05:56:14.113Z,1001.17
2019-03-30T05:57:14.090Z,1001.19
2019-03-30T05:58:14.072Z,1001.24
2019-03-30T05:59:14.063Z,1001.17
2019-03-30T06:00:14.053Z,1001.16
2019-03-30T06:01:14.066Z,1001.15
2019-03-30T06:02:14.041Z,1001.08
2019-03-30T06:03:14.039Z,1001.13
2019-03-30T06:04:14.038Z,1001.12
2019-03-30T06:05:14.086Z,1001.09
2019-03-30T06:06:14.022Z,1001.08
2019-03-30T06:07:14.004Z,1001.06
2019-03-30T06:08:13.995Z,1000.96
2019-03-30T06:09:13.990Z,1000.98
2019-03-30T06:10:13.981Z,1000.99
2019-03-30T06:11:13.989Z,1000.92
2019-03-30T06:12:13.968Z,1001.02
2019-03-30T06:13:13.973Z,1000.96
2019-03-30T06:14:13.967Z,1000.99
2019-03-30T06:15:13.954Z,1000.99
2019-03-30T06:16:13.955Z,1000.94
2019-03-30T06:17:13.935Z,1000.99
2019-03-30T06:18:13.948Z,1000.92
2019-03-30T06:19:13.943Z,1000.87
2019-03-30T06:20:13.936Z,1000.88
2019-03-30T06:21:13.939Z,1000.83
2019-03-30T06:22:13.914Z,1000.75
2019-03-30T06:23:13.907Z,1000.87
2019-03-30T06:24:13.902Z,1000.73
2019-03-30T06:25:13.902Z,1000.73
2019-03-30T06:26:13.913Z,1000.64
2019-03-30T06:27:13.901Z,1000.63
2019-03-30T06:28:13.884Z,1000.59
2019-03-30T06:29:13.899Z,1000.54
2019-03-30T06:30:13.883Z,1000.68
2019-03-30T06:31:14.897Z,1000.65
2019-03-30T06:32:13.872Z,1000.71
2019-03-30T06:33:13.892Z,1000.64
2019-03-30T06:34:13.886Z,1000.67
2019-03-30T06:35:13.876Z,1000.62
2019-03-30T06:36:13.886Z,1000.56
2019-03-30T06:37:13.872Z,1000.54
2019-03-30T06:38:13.859Z,1000.64
2019-03-30T06:39:13.849Z,1000.60
2019-03-30T06:40:13.840Z,1000.48
2019-03-30T06:41:13.841Z,1000.59
2019-03-30T06:42:13.825Z,1000.61
2019-03-30T06:43:13.817Z,1000.58
2019-03-30T06:44:13.815Z,1000.45
2019-03-30T06:45:13.802Z,1000.51
2019-03-30T06:46:13.805Z,1000.45
2019-03-30T06:47:13.801Z,1000.49
2019-03-30T06:48:13.803Z,1000.48
2019-03-30T06:49:13.790Z,1000.54
2019-03-30T06:50:13.786Z,1000.51
2019-03-30T06:51:13.791Z,1000.47
2019-03-30T06:52:13.764Z,1000.53
2019-03-30T06:53:13.763Z,1000.51
2019-03-30T06:54:14.936Z,1000.53
2019-03-30T06:55:14.744Z,1000.51
2019-03-30T06:56:13.814Z,1000.52
2019-03-30T06:57:13.742Z,1000.57
2019-03-30T06:58:14.733Z,1000.52
2019-03-30T06:59:13.716Z,1000.56
2019-03-30T07:00:13.704Z,1000.59
2019-03-30T07:01:13.724Z,1000.51
2019-03-30T07:02:13.688Z,1000.55
2019-03-30T07:03:13.682Z,1000.52
2019-03-30T07:04:13.676Z,1000.60
2019-03-30T07:05:13.667Z,1000.46
2019-03-30T07:06:13.676Z,1000.44
2019-03-30T07:07:13.646Z,1000.50
2019-03-30T07:08:13.646Z,1000.44
2019-03-30T07:09:13.639Z,1000.45
2019-03-30T07:10:13.631Z,1000.45
2019-03-30T07:11:21.119Z,1000.47
2019-03-30T07:12:15.618Z,1000.43
2019-03-30T07:13:13.605Z,1000.40
2019-03-30T07:14:13.608Z,1000.43
2019-03-30T07:15:13.596Z,1000.40
2019-03-30T07:16:13.611Z,1000.43
2019-03-30T07:17:13.585Z,1000.41
2019-03-30T07:18:13.580Z,1000.36
2019-03-30T07:19:13.594Z,1000.29
2019-03-30T07:20:13.578Z,1000.30
2019-03-30T07:21:13.584Z,1000.29
2019-03-30T07:22:13.566Z,1000.33
2019-03-30T07:23:13.563Z,1000.24
2019-03-30T07:24:13.561Z,1000.23
2019-03-30T07:25:13.617Z,1000.06
2019-03-30T07:26:13.561Z,1000.09
2019-03-30T07:27:13.542Z,999.92
2019-03-30T07:28:13.537Z,999.96
2019-03-30T07:29:13.529Z,999.97
2019-03-30T07:30:13.551Z,999.82
2019-03-30T07:31:13.548Z,999.81
2019-03-30T07:32:13.530Z,999.79
2019-03-30T07:33:13.521Z,999.74
2019-03-30T07:34:13.514Z,999.72
2019-03-30T07:35:13.512Z,999.66
2019-03-30T07:36:13.515Z,999.64
2019-03-30T07:37:13.512Z,999.61
2019-03-30T07:38:13.502Z,999.62
2019-03-30T07:39:13.488Z,999.62
2019-03-30T07:40:13.490Z,999.58
2019-03-30T07:41:13.497Z,999.48
2019-03-30T07:42:13.482Z,999.45
2019-03-30T07:43:13.466Z,999.44
2019-03-30T07:44:13.459Z,999.41
2019-03-30T07:45:13.446Z,999.40
2019-03-30T07:46:13.449Z,999.35
2019-03-30T07:47:13.433Z,999.39
2019-03-30T07:48:13.424Z,999.29
2019-03-30T07:49:13.414Z,999.26
2019-03-30T07:50:13.409Z,999.24
2019-03-30T07:51:13.417Z,999.24
2019-03-30T07:52:13.391Z,999.30
2019-03-30T07:53:25.515Z,999.20
2019-03-30T07:54:15.375Z,999.24
2019-03-30T07:55:13.374Z,999.24
2019-03-30T07:56:13.399Z,999.20
2019-03-30T07:57:17.284Z,999.23
2019-03-30T07:58:14.383Z,999.15
2019-03-30T07:59:13.367Z,999.26
2019-03-30T08:00:13.363Z,999.28
2019-03-30T08:01:13.366Z,999.25
2019-03-30T08:02:13.353Z,999.22
2019-03-30T08:03:13.355Z,999.27
2019-03-30T08:04:13.331Z,999.21
2019-03-30T08:05:13.329Z,999.23
2019-03-30T08:06:13.333Z,999.19
2019-03-30T08:07:13.308Z,999.27
2019-03-30T08:08:14.030Z,999.29
2019-03-30T08:09:13.294Z,999.29
2019-03-30T08:10:13.287Z,999.32
2019-03-30T08:11:14.518Z,999.21
2019-03-30T08:12:14.280Z,999.28
2019-03-30T08:13:13.259Z,999.31
2019-03-30T08:14:13.263Z,999.25
2019-03-30T08:15:13.250Z,999.26
2019-03-30T08:16:13.253Z,999.21
2019-03-30T08:17:13.234Z,999.25
2019-03-30T08:18:13.223Z,999.22
2019-03-30T08:19:13.217Z,999.20
2019-03-30T08:20:13.210Z,999.22
2019-03-30T08:21:13.208Z,999.13
2019-03-30T08:22:13.196Z,999.17
2019-03-30T08:23:13.213Z,999.13
2019-03-30T08:24:13.200Z,999.14
2019-03-30T08:25:13.194Z,999.11
2019-03-30T08:26:13.218Z,999.09
2019-03-30T08:27:13.186Z,999.11
2019-03-30T08:28:13.182Z,999.06
2019-03-30T08:29:13.172Z,999.09
2019-03-30T08:30:13.169Z,999.00
2019-03-30T08:31:13.166Z,998.98
2019-03-30T08:32:13.158Z,999.00
2019-03-30T08:33:13.141Z,999.01
2019-03-30T08:34:13.131Z,998.99
2019-03-30T08:35:13.120Z,999.01
2019-03-30T08:36:13.143Z,998.98
2019-03-30T08:37:13.116Z,999.03
2019-03-30T08:38:13.100Z,998.95
2019-03-30T08:39:13.088Z,999.02
2019-03-30T08:40:13.085Z,998.96
2019-03-30T08:41:13.092Z,999.03
2019-03-30T08:42:13.069Z,998.98
2019-03-30T08:43:13.065Z,998.96
2019-03-30T08:44:13.060Z,998.92
2019-03-30T08:45:13.042Z,998.94
2019-03-30T08:46:13.036Z,998.98
2019-03-30T08:47:13.038Z,998.96
2019-03-30T08:48:13.019Z,998.99
2019-03-30T08:49:13.040Z,998.92
2019-03-30T08:50:13.000Z,998.94
2019-03-30T08:51:14.003Z,998.97
2019-03-30T08:52:13.002Z,998.93
2019-03-30T08:53:12.981Z,998.90
2019-03-30T08:54:12.970Z,998.94
2019-03-30T08:55:12.966Z,998.86
2019-03-30T08:56:12.963Z,998.93
2019-03-30T08:57:12.965Z,998.94
2019-03-30T08:58:12.943Z,998.80
2019-03-30T08:59:12.939Z,998.85
2019-03-30T09:00:12.939Z,998.85
2019-03-30T09:01:12.919Z,998.80
2019-03-30T09:02:12.920Z,998.75
2019-03-30T09:03:12.907Z,998.76
2019-03-30T09:04:12.898Z,998.78
2019-03-30T09:05:12.914Z,998.78
2019-03-30T09:06:12.890Z,998.71
2019-03-30T09:07:12.893Z,998.72
2019-03-30T09:08:12.885Z,998.72
2019-03-30T09:09:12.870Z,998.70
2019-03-30T09:10:12.857Z,998.73
2019-03-30T09:11:12.854Z,998.74
2019-03-30T09:12:12.941Z,998.71
2019-03-30T09:13:12.833Z,998.65
2019-03-30T09:14:12.824Z,998.67
2019-03-30T09:15:12.818Z,998.66
2019-03-30T09:16:12.810Z,998.68
2019-03-30T09:17:12.815Z,998.64
2019-03-30T09:18:12.803Z,998.64
2019-03-30T09:19:12.795Z,998.64
2019-03-30T09:20:12.788Z,998.64
2019-03-30T09:21:12.775Z,998.63
2019-03-30T09:22:12.775Z,998.60
2019-03-30T09:23:12.757Z,998.59
2019-03-30T09:24:12.746Z,998.60
2019-03-30T09:25:12.737Z,998.60
2019-03-30T09:26:12.735Z,998.59
2019-03-30T09:27:12.740Z,998.56
2019-03-30T09:28:12.721Z,998.50
2019-03-30T09:29:12.710Z,998.49
2019-03-30T09:30:12.702Z,998.44
2019-03-30T09:31:12.696Z,998.45
2019-03-30T09:32:14.609Z,998.46
2019-03-30T09:33:13.694Z,998.42
2019-03-30T09:34:12.669Z,998.46
2019-03-30T09:35:12.661Z,998.38
2019-03-30T09:36:12.658Z,998.39
2019-03-30T09:37:12.666Z,998.36
2019-03-30T09:38:14.803Z,998.33
2019-03-30T09:39:13.635Z,998.35
2019-03-30T09:40:12.625Z,998.27
2019-03-30T09:41:12.622Z,998.35
2019-03-30T09:42:12.629Z,998.28
2019-03-30T09:43:12.606Z,998.27
2019-03-30T09:44:12.609Z,998.19
2019-03-30T09:45:12.593Z,998.27
2019-03-30T09:46:12.578Z,998.22
2019-03-30T09:47:12.593Z,998.23
2019-03-30T09:48:12.562Z,998.16
2019-03-30T09:49:12.558Z,998.19
2019-03-30T09:50:12.558Z,998.24
2019-03-30T09:51:12.542Z,998.18
2019-03-30T09:52:12.549Z,998.15
2019-03-30T09:53:12.533Z,998.18
2019-03-30T09:54:23.213Z,998.11
2019-03-30T09:55:14.519Z,998.16
2019-03-30T09:56:12.513Z,998.09
2019-03-30T09:57:12.520Z,998.11
2019-03-30T09:58:12.498Z,998.10
2019-03-30T09:59:12.493Z,998.11
2019-03-30T10:00:13.479Z,998.13
2019-03-30T10:01:12.468Z,998.11
2019-03-30T10:02:12.502Z,998.10
2019-03-30T10:03:12.457Z,998.13
2019-03-30T10:04:12.452Z,998.13
2019-03-30T10:05:12.442Z,998.08
2019-03-30T10:06:12.446Z,998.10
2019-03-30T10:07:12.439Z,998.10
2019-03-30T10:08:12.418Z,998.05
2019-03-30T10:09:12.417Z,998.03
2019-03-30T10:10:12.411Z,998.05
2019-03-30T10:11:12.399Z,998.02
2019-03-30T10:12:12.402Z,997.99
2019-03-30T10:13:12.387Z,997.93
2019-03-30T10:14:12.373Z,997.98
2019-03-30T10:15:12.366Z,997.95
2019-03-30T10:16:12.362Z,997.90
2019-03-30T10:17:12.371Z,997.86
2019-03-30T10:18:12.345Z,997.86
2019-03-30T10:19:12.342Z,997.77
2019-03-30T10:20:12.327Z,997.87
2019-03-30T10:21:12.322Z,997.80
2019-03-30T10:22:12.326Z,997.82
2019-03-30T10:23:12.305Z,997.73
2019-03-30T10:24:12.297Z,997.80
2019-03-30T10:25:12.297Z,997.76
2019-03-30T10:26:12.291Z,997.74
2019-03-30T10:27:12.287Z,997.68
2019-03-30T10:28:12.267Z,997.75
2019-03-30T10:29:12.262Z,997.72
2019-03-30T10:30:12.255Z,997.72
2019-03-30T10:31:12.247Z,997.71
2019-03-30T10:32:12.252Z,997.70
2019-03-30T10:33:12.246Z,997.64
2019-03-30T10:34:12.229Z,997.69
2019-03-30T10:35:12.224Z,997.64
2019-03-30T10:36:12.228Z,997.68
2019-03-30T10:37:12.237Z,997.65
2019-03-30T10:38:12.216Z,997.67
2019-03-30T10:39:12.214Z,997.63
2019-03-30T10:40:12.201Z,997.63
2019-03-30T10:41:12.199Z,997.61
2019-03-30T10:42:12.198Z,997.60
2019-03-30T10:43:12.240Z,997.59
2019-03-30T10:44:12.178Z,997.59
2019-03-30T10:45:12.176Z,997.60
2019-03-30T10:46:12.160Z,997.60
2019-03-30T10:47:12.170Z,997.56
2019-03-30T10:48:12.146Z,997.58
2019-03-30T10:49:12.146Z,997.58
2019-03-30T10:50:12.132Z,997.57
2019-03-30T10:51:12.125Z,997.54
2019-03-30T10:52:12.132Z,997.53
2019-03-30T10:53:12.125Z,997.55
2019-03-30T10:54:12.108Z,997.52
2019-03-30T10:55:12.106Z,997.53
2019-03-30T10:56:12.090Z,997.52
2019-03-30T10:57:12.103Z,997.52
2019-03-30T10:58:12.084Z,997.45
2019-03-30T10:59:12.068Z,997.43
2019-03-30T11:00:12.065Z,997.52
2019-03-30T11:01:12.057Z,997.54
2019-03-30T11:02:12.071Z,997.50
2019-03-30T11:03:12.044Z,997.52
2019-03-30T11:04:12.039Z,997.57
2019-03-30T11:05:12.028Z,997.53
2019-03-30T11:06:12.028Z,997.51
2019-03-30T11:07:12.024Z,997.57
2019-03-30T11:08:12.002Z,997.52
2019-03-30T11:09:12.005Z,997.52
2019-03-30T11:10:12.030Z,997.47
2019-03-30T11:11:11.991Z,997.47
2019-03-30T11:12:11.987Z,997.43
2019-03-30T11:13:11.974Z,997.47
2019-03-30T11:14:11.967Z,997.43
2019-03-30T11:15:11.962Z,997.42
2019-03-30T11:16:11.955Z,997.32
2019-03-30T11:17:11.961Z,997.38
2019-03-30T11:18:11.945Z,997.31
2019-03-30T11:19:11.943Z,997.31
2019-03-30T11:20:11.937Z,997.34
2019-03-30T11:21:11.927Z,997.33
2019-03-30T11:22:11.939Z,997.21
2019-03-30T11:23:11.915Z,997.21
2019-03-30T11:24:11.915Z,997.25
2019-03-30T11:25:11.902Z,997.30
2019-03-30T11:26:11.896Z,997.28
2019-03-30T11:27:11.902Z,997.28
2019-03-30T11:28:11.886Z,997.22
2019-03-30T11:29:11.873Z,997.21
2019-03-30T11:30:11.887Z,997.20
2019-03-30T11:31:11.875Z,997.18
2019-03-30T11:32:11.871Z,997.12
2019-03-30T11:33:11.875Z,997.15
2019-03-30T11:34:11.872Z,997.16
2019-03-30T11:35:11.860Z,997.09
2019-03-30T11:36:11.855Z,997.09
2019-03-30T11:37:11.855Z,997.11
2019-03-30T11:38:11.908Z,997.09
2019-03-30T11:39:11.831Z,997.05
2019-03-30T11:40:11.827Z,997.04
2019-03-30T11:41:11.812Z,997.04
2019-03-30T11:42:11.810Z,997.00
2019-03-30T11:43:11.819Z,996.94
2019-03-30T11:44:11.792Z,996.92
2019-03-30T11:45:11.790Z,996.93
2019-03-30T11:46:11.795Z,996.91
2019-03-30T11:47:11.775Z,996.96
2019-03-30T11:48:11.780Z,996.92
2019-03-30T11:49:11.761Z,996.82
2019-03-30T11:50:11.754Z,996.86
2019-03-30T11:51:11.742Z,996.81
2019-03-30T11:52:11.733Z,996.82
2019-03-30T11:53:11.740Z,996.77
2019-03-30T11:54:11.722Z,996.78
2019-03-30T11:55:21.740Z,996.82
2019-03-30T11:56:13.704Z,996.82
2019-03-30T11:57:11.700Z,996.80
2019-03-30T11:58:11.704Z,996.76
2019-03-30T11:59:11.685Z,996.81
2019-03-30T12:00:11.675Z,996.68
2019-03-30T12:01:11.673Z,996.68
2019-03-30T12:02:11.658Z,996.73
2019-03-30T12:03:11.665Z,996.75
2019-03-30T12:04:11.656Z,996.68
2019-03-30T12:05:11.645Z,996.73
2019-03-30T12:06:11.643Z,996.70
2019-03-30T12:07:11.623Z,996.66
2019-03-30T12:08:11.630Z,996.68
2019-03-30T12:09:11.611Z,996.62
2019-03-30T12:10:11.610Z,996.71
2019-03-30T12:11:11.604Z,996.66
2019-03-30T12:12:11.595Z,996.63
2019-03-30T12:13:11.599Z,996.57
2019-03-30T12:14:11.584Z,996.51